METAR Data
IDs: Format: Raw Decoded Include TAF

Data at: 1215 UTC 17 Sep 2019

METAR for:TNCM (St Maarten Intl, --, MN)
Text:TNCM 171200Z 07011KT 9999 -SHRA SCT017 30/25 Q1015 A2997 NOSIG RMK LGT HZ ALQDS
Temperature: 30.0°C ( 86°F)
Dewpoint: 25.0°C ( 77°F) [RH = 75%]
Pressure (altimeter):29.97 inches Hg (1015.0 mb)
Winds:from the ENE (70 degrees) at 13 MPH (11 knots; 5.7 m/s)
Visibility:6 or more sm (10+ km)
Ceiling:at least 12,000 feet AGL
Clouds: scattered clouds at 1700 feet AGL
Weather:-SHRA (light rain showers)